createdAt,value
2022-10-14T00:00:08.908Z,84.38
2022-10-14T00:01:19.147Z,84.39
2022-10-14T00:02:22.746Z,84.92
2022-10-14T00:03:33.702Z,84.92
2022-10-14T00:04:37.248Z,84.71
2022-10-14T00:05:41.755Z,84.85
2022-10-14T00:06:47.297Z,84.92
2022-10-14T00:07:56.426Z,85.23
2022-10-14T00:09:10.596Z,85.33
2022-10-14T00:10:16.612Z,85.23
2022-10-14T00:11:33.649Z,84.95
2022-10-14T00:12:41.915Z,84.96
2022-10-14T00:14:23.754Z,84.84
2022-10-14T00:15:23.437Z,85.18
2022-10-14T00:16:33.802Z,85.14
2022-10-14T00:17:38.545Z,85.29
2022-10-14T00:18:42.378Z,85.46
2022-10-14T00:19:48.266Z,85.35
2022-10-14T00:20:58.870Z,85.21
2022-10-14T00:22:02.426Z,85.38
2022-10-14T00:23:06.226Z,85.28
2022-10-14T00:24:16.174Z,85.63
2022-10-14T00:25:22.314Z,85.51
2022-10-14T00:26:45.372Z,85.75
2022-10-14T00:27:48.863Z,85.57
2022-10-14T00:31:02.164Z,85.83
2022-10-14T00:32:12.367Z,85.85
2022-10-14T00:33:16.034Z,86.39
2022-10-14T00:34:19.848Z,86.79
2022-10-14T00:35:24.013Z,86.24
2022-10-14T00:36:32.295Z,87.77
2022-10-14T00:37:39.563Z,88.08
2022-10-14T00:38:49.063Z,87.88
2022-10-14T00:39:57.178Z,87.76
2022-10-14T00:41:07.303Z,87.53
2022-10-14T00:42:29.292Z,87.43
2022-10-14T00:44:15.680Z,87.12
2022-10-14T00:45:32.021Z,87.36
2022-10-14T00:46:52.088Z,87.50
2022-10-14T00:48:03.834Z,87.85
2022-10-14T00:49:17.435Z,88.30
2022-10-14T00:50:39.061Z,88.19
2022-10-14T00:52:00.079Z,87.62
2022-10-14T00:53:08.397Z,87.19
2022-10-14T00:54:26.101Z,87.17
2022-10-14T00:55:42.390Z,86.99
2022-10-14T00:56:52.636Z,86.83
2022-10-14T00:58:06.881Z,87.04
2022-10-14T00:59:17.649Z,86.93
2022-10-14T01:00:23.308Z,86.68
2022-10-14T01:01:47.533Z,87.01
2022-10-14T01:02:53.593Z,86.86
2022-10-14T01:04:01.156Z,87.11
2022-10-14T01:05:41.148Z,87.25
2022-10-14T01:07:24.282Z,87.40
2022-10-14T01:09:10.970Z,87.28
2022-10-14T01:11:04.209Z,86.84
2022-10-14T01:12:42.090Z,86.85
2022-10-14T01:14:17.223Z,86.87
2022-10-14T01:16:00.828Z,86.80
2022-10-14T01:17:31.142Z,86.73
2022-10-14T01:19:32.939Z,86.70
2022-10-14T01:21:15.737Z,87.03
2022-10-14T01:22:54.887Z,87.13
2022-10-14T01:24:55.595Z,86.90
2022-10-14T01:26:23.411Z,87.13
2022-10-14T01:27:56.635Z,87.33
2022-10-14T01:31:20.783Z,87.74
2022-10-14T01:32:32.712Z,87.33
2022-10-14T01:33:48.993Z,87.90
2022-10-14T01:35:33.126Z,88.18
2022-10-14T01:37:06.879Z,88.23
2022-10-14T01:38:35.011Z,88.07
2022-10-14T01:39:48.237Z,88.29
2022-10-14T01:41:30.969Z,87.89
2022-10-14T01:42:41.623Z,87.77
2022-10-14T01:43:53.387Z,87.65
2022-10-14T01:45:33.963Z,87.96
2022-10-14T01:46:52.992Z,87.93
2022-10-14T01:48:06.709Z,87.85
2022-10-14T01:52:05.965Z,88.14
2022-10-14T01:53:57.068Z,88.14
2022-10-14T01:55:14.781Z,88.50
2022-10-14T01:56:28.735Z,88.23
2022-10-14T01:57:40.436Z,88.37
2022-10-14T01:58:46.897Z,88.21
2022-10-14T01:59:53.458Z,88.11
2022-10-14T02:02:37.595Z,88.27
2022-10-14T02:03:47.776Z,88.31
2022-10-14T02:04:54.046Z,88.27
2022-10-14T02:06:09.729Z,88.55
2022-10-14T02:07:49.004Z,88.35
2022-10-14T02:09:58.961Z,88.45
2022-10-14T02:11:24.190Z,88.67
2022-10-14T02:12:51.837Z,88.39
2022-10-14T02:14:40.077Z,88.30
2022-10-14T02:16:22.018Z,88.46
2022-10-14T02:17:56.503Z,88.45
2022-10-14T02:19:27.008Z,88.41
2022-10-14T02:21:06.117Z,88.35
2022-10-14T02:22:43.359Z,88.23
2022-10-14T02:24:03.844Z,88.39
2022-10-14T02:25:32.565Z,88.21
2022-10-14T02:26:40.310Z,88.33
2022-10-14T02:27:49.040Z,88.30
2022-10-14T02:28:55.681Z,88.39
2022-10-14T02:30:00.754Z,88.10
2022-10-14T02:31:11.209Z,88.30
2022-10-14T02:32:19.363Z,88.49
2022-10-14T02:33:33.594Z,88.07
2022-10-14T02:34:40.689Z,87.95
2022-10-14T02:35:51.887Z,87.92
2022-10-14T02:36:56.789Z,88.15
2022-10-14T02:38:03.782Z,88.06
2022-10-14T02:39:13.173Z,87.99
2022-10-14T02:40:46.961Z,88.05
2022-10-14T02:41:52.397Z,88.29
2022-10-14T02:42:57.637Z,88.15
2022-10-14T02:44:02.253Z,88.35
2022-10-14T02:45:08.040Z,88.37
2022-10-14T02:46:13.720Z,88.66
2022-10-14T02:47:18.463Z,88.84
2022-10-14T02:48:22.943Z,88.56
2022-10-14T02:49:27.068Z,88.68
2022-10-14T02:50:30.831Z,88.43
2022-10-14T02:51:34.940Z,88.67
2022-10-14T02:52:39.857Z,88.34
2022-10-14T02:53:45.279Z,88.49
2022-10-14T02:54:50.051Z,88.56
2022-10-14T02:55:57.643Z,88.82
2022-10-14T02:57:02.028Z,88.83
2022-10-14T02:58:06.838Z,88.71
2022-10-14T02:59:11.129Z,88.81
2022-10-14T03:00:17.241Z,88.54
2022-10-14T03:01:21.349Z,88.69
2022-10-14T03:02:26.128Z,88.68
2022-10-14T03:03:31.300Z,88.70
2022-10-14T03:04:37.242Z,88.53
2022-10-14T03:05:43.185Z,88.57
2022-10-14T03:06:49.169Z,88.39
2022-10-14T03:07:53.881Z,88.78
2022-10-14T03:08:59.302Z,88.68
2022-10-14T03:10:07.437Z,88.52
2022-10-14T03:11:11.993Z,88.69
2022-10-14T03:12:21.141Z,88.79
2022-10-14T03:13:27.477Z,88.71
2022-10-14T03:14:39.105Z,88.58
2022-10-14T03:15:44.917Z,88.63
2022-10-14T03:16:52.532Z,88.72
2022-10-14T03:17:56.496Z,89.11
2022-10-14T03:19:03.911Z,89.02
2022-10-14T03:20:11.257Z,89.04
2022-10-14T03:21:16.668Z,89.11
2022-10-14T03:22:22.225Z,88.99
2022-10-14T03:23:28.899Z,88.55
2022-10-14T03:24:33.421Z,88.69
2022-10-14T03:25:40.017Z,88.56
2022-10-14T03:26:46.918Z,88.74
2022-10-14T03:27:51.336Z,89.01
2022-10-14T03:28:56.441Z,88.95
2022-10-14T03:30:02.313Z,88.81
2022-10-14T03:31:08.684Z,88.74
2022-10-14T03:32:13.065Z,88.70
2022-10-14T03:33:20.542Z,88.47
2022-10-14T03:34:28.025Z,88.30
2022-10-14T03:35:33.897Z,88.35
2022-10-14T03:36:38.083Z,88.28
2022-10-14T03:37:46.065Z,88.87
2022-10-14T03:38:50.414Z,88.82
2022-10-14T03:39:55.068Z,88.39
2022-10-14T03:40:59.744Z,88.37
2022-10-14T03:42:04.782Z,88.53
2022-10-14T03:43:12.131Z,88.06
2022-10-14T03:44:16.222Z,88.13
2022-10-14T03:45:23.299Z,88.13
2022-10-14T03:46:28.100Z,88.29
2022-10-14T03:47:33.166Z,88.58
2022-10-14T03:48:38.645Z,88.24
2022-10-14T03:49:46.077Z,88.33
2022-10-14T03:50:49.945Z,88.43
2022-10-14T03:51:53.730Z,88.68
2022-10-14T03:52:57.636Z,88.98
2022-10-14T03:54:03.806Z,88.91
2022-10-14T03:55:08.424Z,88.99
2022-10-14T03:56:13.702Z,88.84
2022-10-14T03:57:23.094Z,88.76
2022-10-14T03:58:26.940Z,88.48
2022-10-14T03:59:31.969Z,88.32
2022-10-14T04:00:37.724Z,88.44
2022-10-14T04:01:42.742Z,88.61
2022-10-14T04:02:54.297Z,88.35
2022-10-14T04:03:59.479Z,88.86
2022-10-14T04:05:07.087Z,88.72
2022-10-14T04:06:15.886Z,88.64
2022-10-14T04:07:22.973Z,88.77
2022-10-14T04:08:26.784Z,88.87
2022-10-14T04:09:31.934Z,88.99
2022-10-14T04:10:37.317Z,89.10
2022-10-14T04:11:40.868Z,88.30
2022-10-14T04:12:44.630Z,88.31
2022-10-14T04:13:49.644Z,88.19
2022-10-14T04:14:59.977Z,88.18
2022-10-14T04:16:10.496Z,88.22
2022-10-14T04:17:15.386Z,88.43
2022-10-14T04:18:19.754Z,88.44
2022-10-14T04:19:26.334Z,88.28
2022-10-14T04:20:31.575Z,88.58
2022-10-14T04:21:35.872Z,88.27
2022-10-14T04:22:41.183Z,88.88
2022-10-14T04:23:47.965Z,88.82
2022-10-14T04:24:52.969Z,89.10
2022-10-14T04:25:56.813Z,88.69
2022-10-14T04:27:00.487Z,89.01
2022-10-14T04:28:04.168Z,88.89
2022-10-14T04:29:07.746Z,89.39
2022-10-14T04:30:12.115Z,89.23
2022-10-14T04:31:15.755Z,89.39
2022-10-14T04:32:20.357Z,89.65
2022-10-14T04:33:24.834Z,89.71
2022-10-14T04:34:28.546Z,89.32
2022-10-14T04:35:33.734Z,89.43
2022-10-14T04:36:39.827Z,89.22
2022-10-14T04:37:46.610Z,89.25
2022-10-14T04:38:51.675Z,89.54
2022-10-14T04:39:55.336Z,89.45
2022-10-14T04:40:59.914Z,89.44
2022-10-14T04:42:04.169Z,89.43
2022-10-14T04:43:10.106Z,89.72
2022-10-14T04:44:13.833Z,89.36
2022-10-14T04:45:17.553Z,89.33
2022-10-14T04:46:21.884Z,89.43
2022-10-14T04:47:25.911Z,89.37
2022-10-14T04:48:29.804Z,89.56
2022-10-14T04:49:33.698Z,89.25
2022-10-14T04:50:37.820Z,89.28
2022-10-14T04:51:41.459Z,89.31
2022-10-14T04:52:46.299Z,89.45
2022-10-14T04:53:50.022Z,89.51
2022-10-14T04:54:53.756Z,89.31
2022-10-14T04:55:57.717Z,89.17
2022-10-14T04:57:03.086Z,89.27
2022-10-14T04:58:09.172Z,89.12
2022-10-14T04:59:14.175Z,89.32
2022-10-14T05:00:19.492Z,89.37
2022-10-14T05:01:23.229Z,89.69
2022-10-14T05:02:27.147Z,89.61
2022-10-14T05:03:31.187Z,89.64
2022-10-14T05:04:34.837Z,89.44
2022-10-14T05:05:38.474Z,89.71
2022-10-14T05:06:42.218Z,89.64
2022-10-14T05:07:46.622Z,89.62
2022-10-14T05:08:50.433Z,89.43
2022-10-14T05:09:56.997Z,89.65
2022-10-14T05:11:02.892Z,89.67
2022-10-14T05:12:07.171Z,89.87
2022-10-14T05:13:12.116Z,89.49
2022-10-14T05:14:16.069Z,89.32
2022-10-14T05:15:21.322Z,89.52
2022-10-14T05:16:28.519Z,89.83
2022-10-14T05:17:33.636Z,89.56
2022-10-14T05:18:42.429Z,90.08
2022-10-14T05:19:46.389Z,89.74
2022-10-14T05:20:50.100Z,89.99
2022-10-14T05:21:53.986Z,89.92
2022-10-14T05:22:59.664Z,90.07
2022-10-14T05:24:07.887Z,90.20
2022-10-14T05:25:12.579Z,89.75
2022-10-14T05:26:20.162Z,90.02
2022-10-14T05:27:24.282Z,89.99
2022-10-14T05:28:27.986Z,90.22
2022-10-14T05:29:32.309Z,90.22
2022-10-14T05:30:35.917Z,90.59
2022-10-14T05:31:41.490Z,90.98
2022-10-14T05:32:45.165Z,91.04
2022-10-14T05:33:48.807Z,91.03
2022-10-14T05:34:52.550Z,90.91
2022-10-14T05:35:59.867Z,90.56
2022-10-14T05:37:04.307Z,90.62
2022-10-14T05:38:08.146Z,90.83
2022-10-14T05:39:11.890Z,90.79
2022-10-14T05:40:17.142Z,90.94
2022-10-14T05:41:20.888Z,91.08
2022-10-14T05:42:26.106Z,90.87
2022-10-14T05:43:32.718Z,91.34
2022-10-14T05:44:36.829Z,91.15
2022-10-14T05:45:40.738Z,91.25
2022-10-14T05:46:44.866Z,91.24
2022-10-14T05:47:48.771Z,91.32
2022-10-14T05:48:52.654Z,91.61
2022-10-14T05:49:56.415Z,91.59
2022-10-14T05:51:03.507Z,91.50
2022-10-14T05:52:10.910Z,91.26
2022-10-14T05:53:15.531Z,91.26
2022-10-14T05:54:22.223Z,91.11
2022-10-14T05:55:28.142Z,91.75
2022-10-14T05:56:35.566Z,91.90
2022-10-14T05:57:39.907Z,91.93
2022-10-14T05:58:47.837Z,91.65
2022-10-14T05:59:53.489Z,91.75
2022-10-14T06:01:04.561Z,91.32
2022-10-14T06:02:11.090Z,91.60
2022-10-14T06:03:16.549Z,91.81
2022-10-14T06:04:22.839Z,91.42
2022-10-14T06:05:28.678Z,91.64
2022-10-14T06:06:34.245Z,91.64
2022-10-14T06:07:40.107Z,91.80
2022-10-14T06:08:46.596Z,92.01
2022-10-14T06:09:50.210Z,91.85
2022-10-14T06:10:55.332Z,91.99
2022-10-14T06:11:59.344Z,91.64
2022-10-14T06:13:04.012Z,91.18
2022-10-14T06:14:08.516Z,91.41
2022-10-14T06:15:13.294Z,91.39
2022-10-14T06:16:18.515Z,91.28
2022-10-14T06:17:25.760Z,90.83
2022-10-14T06:18:32.217Z,90.84
2022-10-14T06:19:36.355Z,90.71
2022-10-14T06:20:42.029Z,90.72
2022-10-14T06:21:45.989Z,90.75
2022-10-14T06:22:49.540Z,90.41
2022-10-14T06:23:53.687Z,90.55
2022-10-14T06:25:00.496Z,90.43
2022-10-14T06:26:09.874Z,90.02
2022-10-14T06:27:13.998Z,90.33
2022-10-14T06:28:17.935Z,90.31
2022-10-14T06:29:26.375Z,90.21
2022-10-14T06:30:30.046Z,89.81
2022-10-14T06:31:34.381Z,89.88
2022-10-14T06:32:39.467Z,89.89
2022-10-14T06:33:44.177Z,89.87
2022-10-14T06:34:48.883Z,89.62
2022-10-14T06:35:53.667Z,89.62
2022-10-14T06:37:02.655Z,89.54
2022-10-14T06:38:17.535Z,89.39
2022-10-14T06:39:22.356Z,88.80
2022-10-14T06:40:30.223Z,88.60
2022-10-14T06:41:34.631Z,88.67
2022-10-14T06:42:39.277Z,88.29
2022-10-14T06:43:44.364Z,88.26
2022-10-14T06:44:50.785Z,87.95
2022-10-14T06:46:00.088Z,87.57
2022-10-14T06:47:04.505Z,87.57
2022-10-14T06:48:11.250Z,86.79
2022-10-14T06:49:28.553Z,86.48
2022-10-14T06:50:33.301Z,86.32
2022-10-14T06:51:39.714Z,85.99
2022-10-14T06:52:48.222Z,86.57
2022-10-14T06:53:52.852Z,86.41
2022-10-14T06:54:56.944Z,86.98
2022-10-14T06:56:04.883Z,86.44
2022-10-14T06:57:10.470Z,86.12
2022-10-14T06:58:15.319Z,85.61
2022-10-14T06:59:25.138Z,85.31
2022-10-14T07:00:29.226Z,85.19
2022-10-14T07:01:38.633Z,85.19
2022-10-14T07:02:46.275Z,84.73
2022-10-14T07:03:54.205Z,84.41
2022-10-14T07:05:01.270Z,84.20
2022-10-14T07:06:11.227Z,83.85
2022-10-14T07:07:21.612Z,83.63
2022-10-14T07:08:26.751Z,83.22
2022-10-14T07:09:32.137Z,82.93
2022-10-14T07:10:36.728Z,82.04
2022-10-14T07:11:42.992Z,82.52
2022-10-14T07:12:48.281Z,83.28
2022-10-14T07:14:00.527Z,82.79
2022-10-14T07:15:08.066Z,82.21
2022-10-14T07:16:13.684Z,81.71
2022-10-14T07:17:23.091Z,80.11
2022-10-14T07:18:31.278Z,80.48
2022-10-14T07:19:35.118Z,79.02
2022-10-14T07:20:39.006Z,78.64
2022-10-14T07:21:43.119Z,76.71
2022-10-14T07:22:46.980Z,77.95
2022-10-14T07:23:52.971Z,76.62
2022-10-14T07:24:56.774Z,74.63
2022-10-14T07:26:01.691Z,73.70
2022-10-14T07:27:05.592Z,71.24
2022-10-14T07:28:10.340Z,69.96
2022-10-14T07:29:14.038Z,66.80
2022-10-14T07:30:18.545Z,65.01
2022-10-14T07:31:23.948Z,64.17
2022-10-14T07:32:27.897Z,62.53
2022-10-14T07:33:32.389Z,59.52
2022-10-14T07:34:36.546Z,60.53
2022-10-14T07:35:40.238Z,58.60
2022-10-14T07:36:43.841Z,57.53
2022-10-14T07:37:48.767Z,56.07
2022-10-14T07:38:52.519Z,56.81
2022-10-14T07:39:56.280Z,54.70
2022-10-14T07:41:18.256Z,53.49
2022-10-14T07:42:26.011Z,53.81
2022-10-14T07:43:34.795Z,54.09
2022-10-14T07:44:41.847Z,51.17
2022-10-14T07:45:48.622Z,50.75
2022-10-14T07:46:57.276Z,51.62
2022-10-14T07:48:00.998Z,51.41
2022-10-14T07:49:18.648Z,50.05
2022-10-14T07:50:38.617Z,50.15
2022-10-14T07:51:44.363Z,50.12
2022-10-14T07:53:12.659Z,49.30
2022-10-14T07:54:26.580Z,50.56
2022-10-14T07:55:30.337Z,52.15
2022-10-14T07:56:34.872Z,52.64
2022-10-14T07:57:38.514Z,53.22
2022-10-14T07:58:44.591Z,53.89
2022-10-14T08:01:25.056Z,54.53
2022-10-14T08:02:35.128Z,55.19
2022-10-14T08:03:45.641Z,54.34
2022-10-14T08:04:56.365Z,55.05
2022-10-14T08:06:06.212Z,54.86
2022-10-14T08:07:14.389Z,55.36
2022-10-14T08:08:27.689Z,56.27
2022-10-14T08:09:38.651Z,55.44
2022-10-14T08:10:43.162Z,54.73
2022-10-14T08:11:51.639Z,54.99
2022-10-14T08:13:00.025Z,54.60
2022-10-14T08:14:14.818Z,54.08
2022-10-14T08:15:18.811Z,53.66
2022-10-14T08:17:50.288Z,54.44
2022-10-14T08:19:11.014Z,54.19
2022-10-14T08:21:33.135Z,54.70
2022-10-14T08:22:36.677Z,54.91
2022-10-14T08:23:40.361Z,54.66
2022-10-14T08:24:44.710Z,54.56
2022-10-14T08:25:51.125Z,55.05
2022-10-14T08:27:01.889Z,54.39
2022-10-14T08:28:05.798Z,55.01
2022-10-14T08:29:12.000Z,55.68
2022-10-14T08:30:15.670Z,55.41
2022-10-14T08:31:21.262Z,55.83
2022-10-14T08:32:25.168Z,55.68
2022-10-14T08:33:28.894Z,56.47
2022-10-14T08:34:32.691Z,57.34
2022-10-14T08:35:36.725Z,57.62
2022-10-14T08:36:42.758Z,57.76
2022-10-14T08:38:07.232Z,57.78
2022-10-14T08:39:19.848Z,58.04
2022-10-14T08:40:27.806Z,58.23
2022-10-14T08:41:52.861Z,58.88
2022-10-14T08:43:27.214Z,59.07
2022-10-14T08:44:41.359Z,59.78
2022-10-14T08:45:58.506Z,60.16
2022-10-14T08:47:27.251Z,60.56
2022-10-14T08:48:34.645Z,60.77
2022-10-14T08:50:10.375Z,61.34
2022-10-14T08:51:20.999Z,61.67
2022-10-14T08:54:31.371Z,62.23
2022-10-14T08:55:48.748Z,62.50
2022-10-14T08:56:53.664Z,62.64
2022-10-14T08:58:32.696Z,63.18
2022-10-14T08:59:42.360Z,63.32
2022-10-14T09:00:51.688Z,63.79
2022-10-14T09:02:29.449Z,64.01
2022-10-14T09:03:33.744Z,64.22
2022-10-14T09:04:40.827Z,64.34
2022-10-14T09:06:02.389Z,64.37
2022-10-14T09:07:06.992Z,64.47
2022-10-14T09:08:17.250Z,64.40
2022-10-14T09:09:38.613Z,64.94
2022-10-14T09:10:45.030Z,65.03
2022-10-14T09:12:00.471Z,64.54
2022-10-14T09:13:19.548Z,63.65
2022-10-14T09:14:37.706Z,63.55
2022-10-14T09:15:50.789Z,62.56
2022-10-14T09:17:09.322Z,62.23
2022-10-14T09:18:23.936Z,61.90
2022-10-14T09:20:59.321Z,62.96
2022-10-14T09:22:10.848Z,62.50
2022-10-14T09:23:24.306Z,62.14
2022-10-14T09:24:36.026Z,61.84
2022-10-14T09:25:47.252Z,62.18
2022-10-14T09:27:01.325Z,62.21
2022-10-14T09:28:06.952Z,61.93
2022-10-14T09:29:47.255Z,61.72
2022-10-14T09:30:54.290Z,61.58
2022-10-14T09:32:12.312Z,61.28
2022-10-14T09:33:21.546Z,61.16
2022-10-14T09:35:01.310Z,60.92
2022-10-14T09:36:22.298Z,60.58
2022-10-14T09:37:43.961Z,60.52
2022-10-14T09:38:53.590Z,59.62
2022-10-14T09:40:26.781Z,59.76
2022-10-14T09:41:32.405Z,59.82
2022-10-14T09:43:10.716Z,59.64
2022-10-14T09:44:23.943Z,59.53
2022-10-14T09:45:46.483Z,59.44
2022-10-14T09:47:12.930Z,59.60
2022-10-14T09:48:49.511Z,59.51
2022-10-14T09:49:53.594Z,59.95
2022-10-14T09:51:01.241Z,59.79
2022-10-14T09:52:32.636Z,59.85
2022-10-14T09:53:47.191Z,60.56
2022-10-14T09:54:59.107Z,60.01
2022-10-14T09:56:07.832Z,60.00
2022-10-14T09:57:19.996Z,60.12
2022-10-14T09:58:50.429Z,60.35
2022-10-14T10:00:29.784Z,60.03
2022-10-14T10:01:51.547Z,59.66
2022-10-14T10:02:56.821Z,59.70
2022-10-14T10:04:32.063Z,59.85
2022-10-14T10:05:36.930Z,59.88
2022-10-14T10:06:53.992Z,59.90
2022-10-14T10:08:19.122Z,59.97
2022-10-14T10:09:57.694Z,60.60
2022-10-14T10:11:10.834Z,60.91
2022-10-14T10:12:35.857Z,60.90
2022-10-14T10:13:46.769Z,60.84
2022-10-14T10:15:00.331Z,60.86
2022-10-14T10:16:07.415Z,60.82
2022-10-14T10:17:25.145Z,60.82
2022-10-14T10:18:30.200Z,61.05
2022-10-14T10:19:42.381Z,61.08
2022-10-14T10:21:07.054Z,60.87
2022-10-14T10:22:30.815Z,60.79
2022-10-14T10:23:36.639Z,61.13
2022-10-14T10:24:45.199Z,60.99
2022-10-14T10:25:52.416Z,60.47
2022-10-14T10:26:57.380Z,60.38
2022-10-14T10:28:01.384Z,60.60
2022-10-14T10:29:06.230Z,60.47
2022-10-14T10:30:20.367Z,60.45
2022-10-14T10:31:29.585Z,60.08
2022-10-14T10:33:00.104Z,59.97
2022-10-14T10:34:36.198Z,59.36
2022-10-14T10:35:54.880Z,59.22
2022-10-14T10:37:17.451Z,59.23
2022-10-14T10:38:39.284Z,59.45
2022-10-14T10:40:22.026Z,59.61
2022-10-14T10:42:06.295Z,59.54
2022-10-14T10:43:27.898Z,59.18
2022-10-14T10:45:04.187Z,59.03
2022-10-14T10:46:41.631Z,57.97
2022-10-14T10:48:26.062Z,58.10
2022-10-14T10:50:13.785Z,58.69
2022-10-14T10:51:31.424Z,58.85
2022-10-14T10:53:34.875Z,58.88
2022-10-14T10:55:37.482Z,59.17
2022-10-14T10:56:54.691Z,59.00
2022-10-14T10:58:18.608Z,59.06
2022-10-14T10:59:40.467Z,58.93
2022-10-14T11:01:39.957Z,57.61
2022-10-14T11:03:20.745Z,57.41
2022-10-14T11:05:05.586Z,57.43
2022-10-14T11:06:57.012Z,57.75
2022-10-14T11:08:49.437Z,58.10
2022-10-14T11:10:28.636Z,58.13
2022-10-14T11:12:44.992Z,57.57
2022-10-14T11:14:19.818Z,57.24
2022-10-14T11:15:48.749Z,57.15
2022-10-14T11:17:04.652Z,56.72
2022-10-14T11:18:36.298Z,57.07
2022-10-14T11:20:24.097Z,57.44
2022-10-14T11:22:11.673Z,57.31
2022-10-14T11:24:03.536Z,57.56
2022-10-14T11:25:53.779Z,57.38
2022-10-14T11:27:39.375Z,57.13
2022-10-14T11:29:30.817Z,57.16
2022-10-14T11:30:58.862Z,56.76
2022-10-14T11:32:23.985Z,56.80
2022-10-14T11:34:22.255Z,56.29
2022-10-14T11:35:57.698Z,56.21
2022-10-14T11:37:31.613Z,55.89
2022-10-14T11:38:44.355Z,56.03
2022-10-14T11:40:27.274Z,56.00
2022-10-14T11:42:16.023Z,55.60
2022-10-14T11:43:58.541Z,55.55
2022-10-14T11:45:40.918Z,55.42
2022-10-14T11:46:53.572Z,55.38
2022-10-14T11:48:31.257Z,55.26
2022-10-14T11:50:09.454Z,55.35
2022-10-14T11:51:45.078Z,55.59
2022-10-14T11:53:49.484Z,55.07
2022-10-14T11:55:29.589Z,54.88
2022-10-14T11:57:07.600Z,54.83
2022-10-14T11:58:18.911Z,55.70
2022-10-14T11:59:51.958Z,55.57
2022-10-14T12:01:17.266Z,56.29
2022-10-14T12:02:58.870Z,55.73
2022-10-14T12:04:31.197Z,55.98
2022-10-14T12:06:05.686Z,56.56
2022-10-14T12:07:18.964Z,56.57
2022-10-14T12:09:20.405Z,56.02
2022-10-14T12:10:37.391Z,55.93
2022-10-14T12:11:52.878Z,56.34
2022-10-14T12:12:57.493Z,56.58
2022-10-14T12:14:13.540Z,56.24
2022-10-14T12:15:24.587Z,56.04
2022-10-14T12:16:28.949Z,56.56
2022-10-14T12:17:57.788Z,56.20
2022-10-14T12:19:03.444Z,56.65
2022-10-14T12:20:48.796Z,56.29
2022-10-14T12:22:25.919Z,56.24
2022-10-14T12:23:47.833Z,55.84
2022-10-14T12:24:57.448Z,56.03
2022-10-14T12:26:24.196Z,56.21
2022-10-14T12:27:30.671Z,56.10
2022-10-14T12:28:37.872Z,56.13
2022-10-14T12:29:47.830Z,56.38
2022-10-14T12:30:51.809Z,56.41
2022-10-14T12:32:04.710Z,56.35
2022-10-14T12:33:20.119Z,56.51
2022-10-14T12:34:38.090Z,56.51
2022-10-14T12:35:59.843Z,56.69
2022-10-14T12:37:53.623Z,56.84
2022-10-14T12:39:19.739Z,56.96
2022-10-14T12:40:45.916Z,57.09
2022-10-14T12:42:05.487Z,57.12
2022-10-14T12:43:32.773Z,57.13
2022-10-14T12:45:15.118Z,57.70
2022-10-14T12:46:18.885Z,57.59
2022-10-14T12:47:33.949Z,57.80
2022-10-14T12:48:48.530Z,57.65
2022-10-14T12:49:59.232Z,57.71
2022-10-14T12:51:17.221Z,57.93
2022-10-14T12:52:36.319Z,58.03
2022-10-14T12:54:06.241Z,58.16
2022-10-14T12:55:19.900Z,58.56
2022-10-14T12:56:54.839Z,59.14
2022-10-14T12:58:15.528Z,59.23
2022-10-14T12:59:32.511Z,59.44
2022-10-14T13:00:41.142Z,59.25
2022-10-14T13:01:44.942Z,59.57
2022-10-14T13:03:05.614Z,59.97
2022-10-14T13:04:20.300Z,60.20
2022-10-14T13:05:48.007Z,60.41
2022-10-14T13:07:35.735Z,60.34
2022-10-14T13:09:12.619Z,60.75
2022-10-14T13:10:45.945Z,61.51
2022-10-14T13:11:56.893Z,60.98
2022-10-14T13:13:52.663Z,61.87
2022-10-14T13:15:24.085Z,61.32
2022-10-14T13:16:29.244Z,61.80
2022-10-14T13:17:46.925Z,62.72
2022-10-14T13:18:59.199Z,62.38
2022-10-14T13:20:05.045Z,63.08
2022-10-14T13:21:26.928Z,64.33
2022-10-14T13:22:34.528Z,64.82
2022-10-14T13:23:54.459Z,65.94
2022-10-14T13:25:27.819Z,66.39
2022-10-14T13:26:53.722Z,67.14
2022-10-14T13:28:31.136Z,68.01
2022-10-14T13:30:21.844Z,68.30
2022-10-14T13:32:05.635Z,69.57
2022-10-14T13:33:47.874Z,69.89
2022-10-14T13:35:31.869Z,71.48
2022-10-14T13:37:23.904Z,71.46
2022-10-14T13:38:29.499Z,71.48
2022-10-14T13:39:36.465Z,71.47
2022-10-14T13:40:57.065Z,71.72
2022-10-14T13:42:05.450Z,72.04
2022-10-14T13:43:39.900Z,72.43
2022-10-14T13:44:44.767Z,73.31
2022-10-14T13:46:42.554Z,73.34
2022-10-14T13:47:50.968Z,72.88
2022-10-14T13:49:07.612Z,73.31
2022-10-14T13:50:18.505Z,73.13
2022-10-14T13:51:46.352Z,73.18
2022-10-14T13:53:06.363Z,73.96
2022-10-14T13:54:32.832Z,73.93
2022-10-14T13:55:50.254Z,73.79
2022-10-14T13:58:42.385Z,73.24
2022-10-14T14:01:23.684Z,72.13
2022-10-14T14:02:31.652Z,72.34
2022-10-14T14:03:43.837Z,72.45
2022-10-14T14:04:59.485Z,72.30
2022-10-14T14:06:22.230Z,72.25
2022-10-14T14:08:21.778Z,72.69
2022-10-14T14:09:12.282Z,72.35
2022-10-14T14:10:28.344Z,72.70
2022-10-14T14:11:37.898Z,72.75
2022-10-14T14:12:50.384Z,72.62
2022-10-14T14:14:25.589Z,72.78
2022-10-14T14:15:34.361Z,73.07
2022-10-14T14:17:56.459Z,74.07
2022-10-14T14:19:08.321Z,73.56
2022-10-14T14:20:34.289Z,74.32
2022-10-14T14:21:39.391Z,74.32
2022-10-14T14:22:43.785Z,74.13
2022-10-14T14:24:00.027Z,74.36
2022-10-14T14:25:38.167Z,75.06
2022-10-14T14:26:46.271Z,74.56
2022-10-14T14:27:55.167Z,74.79
2022-10-14T14:28:59.132Z,75.27
2022-10-14T14:30:08.610Z,75.19
2022-10-14T14:31:22.409Z,75.68
2022-10-14T14:32:33.108Z,75.46
2022-10-14T14:33:36.881Z,75.90
2022-10-14T14:34:46.213Z,75.99
2022-10-14T14:35:58.972Z,76.20
2022-10-14T14:37:23.580Z,76.08
2022-10-14T14:38:35.470Z,76.25
2022-10-14T14:39:40.355Z,76.30
2022-10-14T14:40:45.856Z,76.65
2022-10-14T14:41:58.389Z,76.68
2022-10-14T14:43:08.422Z,76.87
2022-10-14T14:44:25.707Z,76.99
2022-10-14T14:45:44.185Z,77.58
2022-10-14T14:46:53.412Z,77.55
2022-10-14T14:48:09.298Z,77.80
2022-10-14T14:49:30.997Z,78.27
2022-10-14T14:50:44.104Z,78.44
2022-10-14T14:51:50.143Z,78.31
2022-10-14T14:53:05.295Z,78.94
2022-10-14T14:54:22.152Z,78.70
2022-10-14T14:55:44.590Z,79.08
2022-10-14T14:56:57.701Z,80.05
2022-10-14T14:58:09.987Z,79.27
2022-10-14T14:59:28.900Z,79.42
2022-10-14T15:00:35.460Z,79.16
2022-10-14T15:01:43.771Z,79.54
2022-10-14T15:02:52.073Z,79.44
2022-10-14T15:04:27.635Z,80.29
2022-10-14T15:05:33.830Z,80.39
2022-10-14T15:06:51.428Z,80.28
2022-10-14T15:07:56.349Z,80.24
2022-10-14T15:09:21.512Z,80.86
2022-10-14T15:10:34.134Z,81.48
2022-10-14T15:11:58.212Z,81.67
2022-10-14T15:13:56.889Z,82.47
2022-10-14T15:15:05.699Z,82.16
2022-10-14T15:16:10.476Z,82.35
2022-10-14T15:17:40.915Z,83.84
2022-10-14T15:18:44.649Z,82.93
2022-10-14T15:19:48.295Z,82.76
2022-10-14T15:20:52.666Z,83.34
2022-10-14T15:22:17.364Z,83.46
2022-10-14T15:23:49.377Z,83.98
2022-10-14T15:25:02.508Z,83.82
2022-10-14T15:26:33.626Z,84.22
2022-10-14T15:27:37.368Z,83.94
2022-10-14T15:28:41.329Z,84.00
2022-10-14T15:30:08.022Z,84.23
2022-10-14T15:31:16.641Z,84.25
2022-10-14T15:32:23.637Z,84.30
2022-10-14T15:33:31.941Z,85.73
2022-10-14T15:34:35.896Z,85.11
2022-10-14T15:35:42.498Z,85.13
2022-10-14T15:36:49.860Z,85.53
2022-10-14T15:37:54.224Z,85.18
2022-10-14T15:38:59.305Z,85.98
2022-10-14T15:40:15.323Z,86.46
2022-10-14T15:41:19.020Z,85.99
2022-10-14T15:42:24.795Z,86.19
2022-10-14T15:43:29.080Z,86.20
2022-10-14T15:44:32.839Z,86.72
2022-10-14T15:45:39.375Z,87.40
2022-10-14T15:47:05.018Z,87.64
2022-10-14T15:48:19.400Z,87.65
2022-10-14T15:49:35.489Z,88.06
2022-10-14T15:50:44.354Z,87.86
2022-10-14T15:51:47.844Z,89.05
2022-10-14T15:52:53.889Z,89.05
2022-10-14T15:54:01.556Z,88.34
2022-10-14T15:55:21.944Z,89.21
2022-10-14T15:56:25.891Z,89.22
2022-10-14T15:57:33.421Z,89.15
2022-10-14T15:58:37.810Z,89.74
2022-10-14T15:59:42.209Z,89.96
2022-10-14T16:00:47.921Z,90.30
2022-10-14T16:01:54.611Z,91.05
2022-10-14T16:03:11.133Z,90.89
2022-10-14T16:04:29.130Z,91.26
2022-10-14T16:05:42.548Z,91.19
2022-10-14T16:06:47.060Z,91.39
2022-10-14T16:07:51.771Z,92.48
2022-10-14T16:08:56.677Z,91.63
2022-10-14T16:10:01.503Z,91.50
2022-10-14T16:11:27.370Z,92.99
2022-10-14T16:12:32.315Z,91.98
2022-10-14T16:13:40.105Z,91.87
2022-10-14T16:14:44.431Z,92.00
2022-10-14T16:15:59.199Z,92.07